createdAt,value
2023-03-23T15:59:28.131Z,8.35
2023-03-23T16:01:59.736Z,8.07
2023-03-23T16:04:29.714Z,7.78
2023-03-23T16:06:59.891Z,8.43
2023-03-23T16:09:29.079Z,7.88
2023-03-23T16:11:59.275Z,6.60
2023-03-23T16:14:36.266Z,6.63
2023-03-23T16:17:16.880Z,7.10
2023-03-23T16:19:49.087Z,8.48
2023-03-23T16:22:18.982Z,8.38
2023-03-23T16:24:48.336Z,7.47
2023-03-23T16:27:23.780Z,7.18
2023-03-23T16:30:03.136Z,7.53
2023-03-23T16:35:11.322Z,7.28
2023-03-23T16:37:51.822Z,7.18
2023-03-23T16:40:45.621Z,6.88
2023-03-23T16:43:19.617Z,6.95
2023-03-23T16:46:00.216Z,7.80
2023-03-23T16:48:32.585Z,7.00
2023-03-23T16:51:23.835Z,7.05
2023-03-23T16:54:00.854Z,7.32
2023-03-23T16:56:35.245Z,8.30
2023-03-23T16:59:05.120Z,7.13
2023-03-23T17:01:35.103Z,6.85
2023-03-23T17:04:10.371Z,7.22
2023-03-23T17:06:43.411Z,7.30
2023-03-23T17:09:14.871Z,7.90
2023-03-23T17:11:46.714Z,7.20
2023-03-23T17:14:15.719Z,9.02
2023-03-23T17:16:51.247Z,19.33
2023-03-23T17:19:20.712Z,8.35
2023-03-23T17:22:10.557Z,6.85
2023-03-23T17:24:42.273Z,6.95
2023-03-23T17:27:14.788Z,7.53
2023-03-23T17:32:20.639Z,6.50
2023-03-23T17:34:52.897Z,7.28
2023-03-23T17:37:27.638Z,7.40
2023-03-23T17:39:59.394Z,7.55
2023-03-23T17:42:30.436Z,7.60
2023-03-23T17:45:07.036Z,6.95
2023-03-23T17:47:36.218Z,6.88
2023-03-23T17:50:11.296Z,6.93
2023-03-23T17:52:44.843Z,7.25
2023-03-23T17:55:14.281Z,8.15
2023-03-23T17:57:44.911Z,6.68
2023-03-23T18:00:18.977Z,6.97
2023-03-23T18:02:48.871Z,7.07
2023-03-23T18:05:18.207Z,7.03
2023-03-23T18:07:47.533Z,6.90
2023-03-23T18:10:17.167Z,7.30
2023-03-23T18:12:46.634Z,6.35
2023-03-23T18:15:16.076Z,7.22
2023-03-23T18:17:48.934Z,6.63
2023-03-23T18:20:20.759Z,6.60
2023-03-23T18:22:50.121Z,6.38
2023-03-23T18:25:25.197Z,5.80
2023-03-23T18:28:04.612Z,6.30
2023-03-23T18:30:37.199Z,5.97
2023-03-23T18:33:14.336Z,6.20
2023-03-23T18:35:45.404Z,5.55
2023-03-23T18:38:15.121Z,5.60
2023-03-23T18:40:53.350Z,5.47
2023-03-23T18:43:22.776Z,5.60
2023-03-23T18:45:58.269Z,5.28
2023-03-23T18:48:28.714Z,5.80
2023-03-23T18:51:01.574Z,6.38
2023-03-23T18:53:33.581Z,5.18
2023-03-23T18:56:09.833Z,5.43
2023-03-23T18:58:42.340Z,5.13
2023-03-23T19:01:16.387Z,5.68
2023-03-23T19:03:50.846Z,5.25
2023-03-23T19:06:23.370Z,5.07
2023-03-23T19:08:52.966Z,4.90
2023-03-23T19:11:25.697Z,5.20
2023-03-23T19:14:02.852Z,5.30
2023-03-23T19:16:36.809Z,5.07
2023-03-23T19:19:14.702Z,4.70
2023-03-23T19:22:00.131Z,4.28
2023-03-23T19:24:32.368Z,4.32
2023-03-23T19:27:02.672Z,4.45
2023-03-23T19:32:10.177Z,4.10
2023-03-23T19:34:41.970Z,3.60
2023-03-23T19:37:12.743Z,4.25
2023-03-23T19:39:43.034Z,4.20
2023-03-23T19:42:17.450Z,3.92
2023-03-23T19:44:47.513Z,4.25
2023-03-23T19:47:18.726Z,4.05
2023-03-23T19:49:48.722Z,3.58
2023-03-23T19:52:21.532Z,3.85
2023-03-23T19:54:53.242Z,3.55
2023-03-23T19:57:24.615Z,3.67
2023-03-23T19:59:53.874Z,3.35
2023-03-23T20:02:25.581Z,3.50
2023-03-23T20:04:59.009Z,4.32
2023-03-23T20:07:30.451Z,3.58
2023-03-23T20:10:00.536Z,5.03
2023-03-23T20:12:33.030Z,4.88
2023-03-23T20:15:05.189Z,4.25
2023-03-23T20:17:34.920Z,3.67
2023-03-23T20:22:43.122Z,4.70
2023-03-23T20:25:14.891Z,3.78
2023-03-23T20:27:46.986Z,3.88
2023-03-23T20:30:21.635Z,3.20
2023-03-23T20:32:54.864Z,3.55
2023-03-23T20:35:30.037Z,3.78
2023-03-23T20:38:03.636Z,4.63
2023-03-23T20:40:37.611Z,4.85
2023-03-23T20:43:06.519Z,3.78
2023-03-23T20:45:38.141Z,3.95
2023-03-23T20:48:10.293Z,3.45
2023-03-23T20:50:44.370Z,4.05
2023-03-23T20:53:18.480Z,4.15
2023-03-23T20:55:52.698Z,12.90
2023-03-23T20:58:23.348Z,4.50
2023-03-23T21:00:57.983Z,4.13
2023-03-23T21:03:39.330Z,3.97
2023-03-23T21:06:12.484Z,3.80
2023-03-23T21:08:41.901Z,7.38
2023-03-23T21:11:18.440Z,4.22
2023-03-23T21:13:48.949Z,4.38
2023-03-23T21:16:20.819Z,3.95
2023-03-23T21:18:50.756Z,3.72
2023-03-23T21:21:25.512Z,4.70
2023-03-23T21:23:59.990Z,4.25
2023-03-23T21:26:31.705Z,4.65
2023-03-23T21:29:04.768Z,4.07
2023-03-23T21:31:39.824Z,4.18
2023-03-23T21:34:11.670Z,4.43
2023-03-23T21:36:42.004Z,4.20
2023-03-23T21:39:15.930Z,4.00
2023-03-23T21:41:45.541Z,4.13
2023-03-23T21:44:18.782Z,4.55
2023-03-23T21:46:52.675Z,4.47
2023-03-23T21:49:26.691Z,3.67
2023-03-23T21:52:03.677Z,3.92
2023-03-23T21:54:36.045Z,4.38
2023-03-23T21:57:06.563Z,3.80
2023-03-23T21:59:35.835Z,4.47
2023-03-23T22:02:11.421Z,4.22
2023-03-23T22:04:43.310Z,4.53
2023-03-23T22:07:15.695Z,3.97
2023-03-23T22:09:46.186Z,5.05
2023-03-23T22:12:16.081Z,4.13
2023-03-23T22:14:45.367Z,4.30
2023-03-23T22:17:17.730Z,4.70
2023-03-23T22:19:52.630Z,4.13
2023-03-23T22:22:23.885Z,4.85
2023-03-23T22:24:55.279Z,4.40
2023-03-23T22:27:24.573Z,4.50
2023-03-23T22:29:58.027Z,4.22
2023-03-23T22:32:29.289Z,4.65
2023-03-23T22:34:58.560Z,4.20
2023-03-23T22:37:30.624Z,4.28
2023-03-23T22:40:00.336Z,4.82
2023-03-23T22:42:31.474Z,4.20
2023-03-23T22:45:01.094Z,3.92
2023-03-23T22:47:35.532Z,4.57
2023-03-23T22:50:08.014Z,4.55
2023-03-23T22:52:37.470Z,4.35
2023-03-23T22:55:08.903Z,4.40
2023-03-23T22:57:42.178Z,4.32
2023-03-23T23:00:15.234Z,4.30
2023-03-23T23:02:49.338Z,4.30
2023-03-23T23:05:20.567Z,4.60
2023-03-23T23:07:54.679Z,4.60
2023-03-23T23:10:23.864Z,5.22
2023-03-23T23:12:55.530Z,4.07
2023-03-23T23:15:27.462Z,4.10
2023-03-23T23:18:00.494Z,5.05
2023-03-23T23:20:29.665Z,3.72
2023-03-23T23:22:58.810Z,4.35
2023-03-23T23:25:29.080Z,4.25
2023-03-23T23:28:07.107Z,4.90
2023-03-23T23:30:39.336Z,4.70
2023-03-23T23:33:11.936Z,4.28
2023-03-23T23:35:42.194Z,4.22
2023-03-23T23:38:13.437Z,4.13
2023-03-23T23:40:47.107Z,4.82
2023-03-23T23:43:17.302Z,3.80
2023-03-23T23:45:46.302Z,4.32
2023-03-23T23:48:20.912Z,3.90
2023-03-23T23:50:57.144Z,4.38
2023-03-23T23:53:26.292Z,3.88
2023-03-23T23:55:57.680Z,4.13
2023-03-23T23:58:27.377Z,4.32
